Terminal Aerodrome Forecast
Issued by NWS Cleveland, OH

Home | Current Version | Previous Version | Text Only | Print | Product List | Glossary Off
Versions: 1 2 3 4 5 6 7 8 9 10 11 12 13 14 15 16 17 18 19 20 21 22 23

000
FTUS41 KCLE 221123
TAFCAK
TAF
KCAK 221123Z 2212/2312 22007KT P6SM SCT035 BKN100
      TEMPO 2212/2214 5SM -SHRA BKN030
     FM221600 25011KT 6SM HZ VCSH BKN040
     FM230200 23005KT 6SM HZ VCSH SCT045 BKN100
     FM230600 28004KT 4SM BR SCT010=

USA.gov is the U.S. government's official web portal to all federal, state and local government web resources and services.